sensor_id;sensor_type;location;lat;lon;timestamp;P1;durP1;ratioP1;P2;durP2;ratioP2
32319;SDS011;19080;51.750;5.888;2024-01-11T00:01:33;37.67;;;17.45;;
32319;SDS011;19080;51.750;5.888;2024-01-11T00:03:59;32.20;;;15.25;;
32319;SDS011;19080;51.750;5.888;2024-01-11T00:06:26;32.53;;;15.70;;
32319;SDS011;19080;51.750;5.888;2024-01-11T00:08:53;30.58;;;15.77;;
32319;SDS011;19080;51.750;5.888;2024-01-11T00:11:20;40.28;;;17.23;;
32319;SDS011;19080;51.750;5.888;2024-01-11T00:13:48;28.85;;;15.40;;
32319;SDS011;19080;51.750;5.888;2024-01-11T00:16:14;37.28;;;17.25;;
32319;SDS011;19080;51.750;5.888;2024-01-11T00:18:41;33.45;;;17.60;;
32319;SDS011;19080;51.750;5.888;2024-01-11T00:21:08;34.85;;;16.70;;
32319;SDS011;19080;51.750;5.888;2024-01-11T00:23:35;32.08;;;17.60;;
32319;SDS011;19080;51.750;5.888;2024-01-11T00:26:01;33.17;;;16.88;;
32319;SDS011;19080;51.750;5.888;2024-01-11T00:28:28;30.05;;;16.38;;
32319;SDS011;19080;51.750;5.888;2024-01-11T00:30:55;35.58;;;17.38;;
32319;SDS011;19080;51.750;5.888;2024-01-11T00:33:22;35.53;;;17.45;;
32319;SDS011;19080;51.750;5.888;2024-01-11T00:35:49;34.90;;;18.23;;
32319;SDS011;19080;51.750;5.888;2024-01-11T00:38:15;35.80;;;17.90;;
32319;SDS011;19080;51.750;5.888;2024-01-11T00:40:43;34.22;;;17.00;;
32319;SDS011;19080;51.750;5.888;2024-01-11T00:43:10;38.35;;;16.98;;
32319;SDS011;19080;51.750;5.888;2024-01-11T00:45:37;49.05;;;20.38;;
32319;SDS011;19080;51.750;5.888;2024-01-11T00:48:04;43.47;;;19.10;;
32319;SDS011;19080;51.750;5.888;2024-01-11T00:50:31;51.17;;;20.40;;
32319;SDS011;19080;51.750;5.888;2024-01-11T00:52:58;37.25;;;17.92;;
32319;SDS011;19080;51.750;5.888;2024-01-11T00:55:25;34.33;;;17.02;;
32319;SDS011;19080;51.750;5.888;2024-01-11T00:57:51;39.50;;;18.00;;
32319;SDS011;19080;51.750;5.888;2024-01-11T01:00:18;37.00;;;19.10;;
32319;SDS011;19080;51.750;5.888;2024-01-11T01:02:45;44.50;;;19.10;;
32319;SDS011;19080;51.750;5.888;2024-01-11T01:05:12;33.88;;;17.95;;
32319;SDS011;19080;51.750;5.888;2024-01-11T01:07:39;33.95;;;17.95;;
32319;SDS011;19080;51.750;5.888;2024-01-11T01:10:06;34.45;;;18.90;;
32319;SDS011;19080;51.750;5.888;2024-01-11T01:12:34;42.90;;;18.70;;
32319;SDS011;19080;51.750;5.888;2024-01-11T01:15:01;40.35;;;19.35;;
32319;SDS011;19080;51.750;5.888;2024-01-11T01:17:28;31.27;;;17.25;;
32319;SDS011;19080;51.750;5.888;2024-01-11T01:19:55;34.80;;;17.52;;
32319;SDS011;19080;51.750;5.888;2024-01-11T01:22:22;36.42;;;18.58;;
32319;SDS011;19080;51.750;5.888;2024-01-11T01:24:48;34.80;;;17.77;;
32319;SDS011;19080;51.750;5.888;2024-01-11T01:27:16;33.38;;;18.38;;
32319;SDS011;19080;51.750;5.888;2024-01-11T01:29:43;32.95;;;17.40;;
32319;SDS011;19080;51.750;5.888;2024-01-11T01:32:10;33.70;;;17.27;;
32319;SDS011;19080;51.750;5.888;2024-01-11T01:34:36;33.78;;;16.92;;
32319;SDS011;19080;51.750;5.888;2024-01-11T01:37:03;33.22;;;16.88;;
32319;SDS011;19080;51.750;5.888;2024-01-11T01:39:30;33.03;;;17.05;;
32319;SDS011;19080;51.750;5.888;2024-01-11T01:41:56;32.22;;;16.50;;
32319;SDS011;19080;51.750;5.888;2024-01-11T01:44:23;34.33;;;17.35;;
32319;SDS011;19080;51.750;5.888;2024-01-11T01:46:51;28.92;;;15.27;;
32319;SDS011;19080;51.750;5.888;2024-01-11T01:49:18;31.73;;;16.35;;
32319;SDS011;19080;51.750;5.888;2024-01-11T01:51:49;31.48;;;15.75;;
32319;SDS011;19080;51.750;5.888;2024-01-11T01:54:17;32.10;;;14.75;;
32319;SDS011;19080;51.750;5.888;2024-01-11T01:56:45;35.15;;;16.20;;
32319;SDS011;19080;51.750;5.888;2024-01-11T01:59:12;36.42;;;17.13;;
32319;SDS011;19080;51.750;5.888;2024-01-11T02:01:40;31.52;;;15.73;;
32319;SDS011;19080;51.750;5.888;2024-01-11T02:04:07;27.98;;;14.07;;
32319;SDS011;19080;51.750;5.888;2024-01-11T02:06:34;33.17;;;15.38;;
32319;SDS011;19080;51.750;5.888;2024-01-11T02:09:01;32.13;;;16.55;;
32319;SDS011;19080;51.750;5.888;2024-01-11T02:11:31;32.70;;;14.77;;
32319;SDS011;19080;51.750;5.888;2024-01-11T02:13:59;30.27;;;15.05;;
32319;SDS011;19080;51.750;5.888;2024-01-11T02:16:26;30.92;;;15.68;;
32319;SDS011;19080;51.750;5.888;2024-01-11T02:18:52;33.05;;;16.05;;
32319;SDS011;19080;51.750;5.888;2024-01-11T02:21:19;27.23;;;13.63;;
32319;SDS011;19080;51.750;5.888;2024-01-11T02:24:04;30.13;;;15.48;;
32319;SDS011;19080;51.750;5.888;2024-01-11T02:26:32;34.22;;;14.32;;
32319;SDS011;19080;51.750;5.888;2024-01-11T02:28:59;30.45;;;15.00;;
32319;SDS011;19080;51.750;5.888;2024-01-11T02:31:26;30.77;;;15.48;;
32319;SDS011;19080;51.750;5.888;2024-01-11T02:33:54;36.95;;;15.18;;
32319;SDS011;19080;51.750;5.888;2024-01-11T02:36:22;31.65;;;15.13;;
32319;SDS011;19080;51.750;5.888;2024-01-11T02:38:49;25.15;;;14.13;;
32319;SDS011;19080;51.750;5.888;2024-01-11T02:41:18;32.22;;;15.52;;
32319;SDS011;19080;51.750;5.888;2024-01-11T02:43:48;29.77;;;14.35;;
32319;SDS011;19080;51.750;5.888;2024-01-11T02:46:16;29.75;;;13.93;;
32319;SDS011;19080;51.750;5.888;2024-01-11T02:48:43;30.38;;;14.23;;
32319;SDS011;19080;51.750;5.888;2024-01-11T02:51:10;27.40;;;14.15;;
32319;SDS011;19080;51.750;5.888;2024-01-11T02:53:37;27.63;;;13.82;;
32319;SDS011;19080;51.750;5.888;2024-01-11T02:56:04;29.15;;;14.10;;
32319;SDS011;19080;51.750;5.888;2024-01-11T02:58:31;27.85;;;14.32;;
32319;SDS011;19080;51.750;5.888;2024-01-11T03:00:57;28.50;;;13.80;;
32319;SDS011;19080;51.750;5.888;2024-01-11T03:03:24;22.52;;;12.75;;
32319;SDS011;19080;51.750;5.888;2024-01-11T03:05:51;28.42;;;15.07;;
32319;SDS011;19080;51.750;5.888;2024-01-11T03:08:18;23.27;;;12.95;;
32319;SDS011;19080;51.750;5.888;2024-01-11T03:10:45;29.00;;;14.35;;
32319;SDS011;19080;51.750;5.888;2024-01-11T03:13:12;22.13;;;11.32;;
32319;SDS011;19080;51.750;5.888;2024-01-11T03:15:39;25.13;;;13.20;;
32319;SDS011;19080;51.750;5.888;2024-01-11T03:18:06;23.70;;;12.88;;
32319;SDS011;19080;51.750;5.888;2024-01-11T03:20:33;24.52;;;13.73;;
32319;SDS011;19080;51.750;5.888;2024-01-11T03:22:59;29.05;;;13.32;;
32319;SDS011;19080;51.750;5.888;2024-01-11T03:25:26;30.60;;;14.13;;
32319;SDS011;19080;51.750;5.888;2024-01-11T03:27:53;29.00;;;12.85;;
32319;SDS011;19080;51.750;5.888;2024-01-11T03:30:19;24.88;;;13.63;;
32319;SDS011;19080;51.750;5.888;2024-01-11T03:32:46;25.85;;;13.07;;
32319;SDS011;19080;51.750;5.888;2024-01-11T03:35:13;28.83;;;14.07;;
32319;SDS011;19080;51.750;5.888;2024-01-11T03:37:40;27.13;;;14.38;;
32319;SDS011;19080;51.750;5.888;2024-01-11T03:40:07;26.65;;;12.95;;
32319;SDS011;19080;51.750;5.888;2024-01-11T03:42:33;25.60;;;13.30;;
32319;SDS011;19080;51.750;5.888;2024-01-11T03:45:00;29.35;;;14.13;;
32319;SDS011;19080;51.750;5.888;2024-01-11T03:47:27;27.25;;;13.70;;
32319;SDS011;19080;51.750;5.888;2024-01-11T03:49:54;26.25;;;13.73;;
32319;SDS011;19080;51.750;5.888;2024-01-11T03:52:20;26.42;;;13.05;;
32319;SDS011;19080;51.750;5.888;2024-01-11T03:54:47;25.65;;;12.43;;
32319;SDS011;19080;51.750;5.888;2024-01-11T03:57:14;26.20;;;13.30;;
32319;SDS011;19080;51.750;5.888;2024-01-11T03:59:41;26.38;;;14.43;;
32319;SDS011;19080;51.750;5.888;2024-01-11T04:02:08;30.65;;;13.30;;
32319;SDS011;19080;51.750;5.888;2024-01-11T04:04:35;23.85;;;12.95;;
32319;SDS011;19080;51.750;5.888;2024-01-11T04:07:02;32.13;;;14.95;;
32319;SDS011;19080;51.750;5.888;2024-01-11T04:09:29;27.20;;;12.80;;
32319;SDS011;19080;51.750;5.888;2024-01-11T04:11:55;30.67;;;14.50;;
32319;SDS011;19080;51.750;5.888;2024-01-11T04:14:22;25.33;;;13.38;;
32319;SDS011;19080;51.750;5.888;2024-01-11T04:16:49;30.10;;;14.70;;
32319;SDS011;19080;51.750;5.888;2024-01-11T04:19:15;30.50;;;13.73;;
32319;SDS011;19080;51.750;5.888;2024-01-11T04:21:44;28.88;;;13.85;;
32319;SDS011;19080;51.750;5.888;2024-01-11T04:24:11;26.83;;;13.60;;
32319;SDS011;19080;51.750;5.888;2024-01-11T04:26:38;22.73;;;12.00;;
32319;SDS011;19080;51.750;5.888;2024-01-11T04:29:04;25.80;;;11.75;;
32319;SDS011;19080;51.750;5.888;2024-01-11T04:31:31;23.58;;;12.70;;
32319;SDS011;19080;51.750;5.888;2024-01-11T04:33:58;22.58;;;12.85;;
32319;SDS011;19080;51.750;5.888;2024-01-11T04:36:25;30.08;;;14.10;;
32319;SDS011;19080;51.750;5.888;2024-01-11T04:38:52;25.65;;;14.20;;
32319;SDS011;19080;51.750;5.888;2024-01-11T04:41:18;30.10;;;13.55;;
32319;SDS011;19080;51.750;5.888;2024-01-11T04:43:45;26.63;;;13.55;;
32319;SDS011;19080;51.750;5.888;2024-01-11T04:46:12;25.98;;;12.95;;
32319;SDS011;19080;51.750;5.888;2024-01-11T04:48:40;27.23;;;13.98;;
32319;SDS011;19080;51.750;5.888;2024-01-11T04:51:07;23.00;;;13.05;;
32319;SDS011;19080;51.750;5.888;2024-01-11T04:53:35;25.98;;;12.95;;
32319;SDS011;19080;51.750;5.888;2024-01-11T04:56:06;23.95;;;13.60;;
32319;SDS011;19080;51.750;5.888;2024-01-11T04:58:38;29.25;;;13.98;;
32319;SDS011;19080;51.750;5.888;2024-01-11T05:01:06;28.13;;;13.60;;
32319;SDS011;19080;51.750;5.888;2024-01-11T05:03:33;29.10;;;14.75;;
32319;SDS011;19080;51.750;5.888;2024-01-11T05:06:00;30.23;;;15.00;;
32319;SDS011;19080;51.750;5.888;2024-01-11T05:08:28;30.38;;;15.68;;
32319;SDS011;19080;51.750;5.888;2024-01-11T05:10:55;28.88;;;15.25;;
32319;SDS011;19080;51.750;5.888;2024-01-11T05:13:22;31.40;;;14.65;;
32319;SDS011;19080;51.750;5.888;2024-01-11T05:15:49;28.45;;;14.73;;
32319;SDS011;19080;51.750;5.888;2024-01-11T05:18:15;28.67;;;14.07;;
32319;SDS011;19080;51.750;5.888;2024-01-11T05:20:42;31.98;;;15.05;;
32319;SDS011;19080;51.750;5.888;2024-01-11T05:23:09;31.20;;;15.85;;
32319;SDS011;19080;51.750;5.888;2024-01-11T05:25:36;28.25;;;14.13;;
32319;SDS011;19080;51.750;5.888;2024-01-11T05:28:03;26.55;;;12.93;;
32319;SDS011;19080;51.750;5.888;2024-01-11T05:30:30;28.98;;;14.95;;
32319;SDS011;19080;51.750;5.888;2024-01-11T05:32:57;31.52;;;14.63;;
32319;SDS011;19080;51.750;5.888;2024-01-11T05:35:24;28.73;;;14.70;;
32319;SDS011;19080;51.750;5.888;2024-01-11T05:37:53;33.30;;;14.85;;
32319;SDS011;19080;51.750;5.888;2024-01-11T05:40:23;34.03;;;16.50;;
32319;SDS011;19080;51.750;5.888;2024-01-11T05:42:51;31.38;;;15.32;;
32319;SDS011;19080;51.750;5.888;2024-01-11T05:45:18;25.73;;;13.80;;
32319;SDS011;19080;51.750;5.888;2024-01-11T05:47:52;29.73;;;14.93;;
32319;SDS011;19080;51.750;5.888;2024-01-11T05:50:19;25.40;;;13.73;;
32319;SDS011;19080;51.750;5.888;2024-01-11T05:52:46;27.40;;;13.93;;
32319;SDS011;19080;51.750;5.888;2024-01-11T05:55:12;26.75;;;14.15;;
32319;SDS011;19080;51.750;5.888;2024-01-11T05:57:39;23.58;;;12.63;;
32319;SDS011;19080;51.750;5.888;2024-01-11T06:00:06;25.75;;;13.05;;
32319;SDS011;19080;51.750;5.888;2024-01-11T06:02:33;27.42;;;14.13;;
32319;SDS011;19080;51.750;5.888;2024-01-11T06:05:00;30.35;;;12.95;;
32319;SDS011;19080;51.750;5.888;2024-01-11T06:07:26;28.60;;;15.77;;
32319;SDS011;19080;51.750;5.888;2024-01-11T06:09:54;28.27;;;13.88;;
32319;SDS011;19080;51.750;5.888;2024-01-11T06:12:22;27.67;;;13.20;;
32319;SDS011;19080;51.750;5.888;2024-01-11T06:14:48;24.85;;;13.02;;
32319;SDS011;19080;51.750;5.888;2024-01-11T06:17:15;27.33;;;14.18;;
32319;SDS011;19080;51.750;5.888;2024-01-11T06:19:42;25.42;;;12.73;;
32319;SDS011;19080;51.750;5.888;2024-01-11T06:22:09;27.20;;;15.38;;
32319;SDS011;19080;51.750;5.888;2024-01-11T06:24:35;32.35;;;14.18;;
32319;SDS011;19080;51.750;5.888;2024-01-11T06:27:02;31.30;;;14.60;;
32319;SDS011;19080;51.750;5.888;2024-01-11T06:29:29;32.30;;;14.68;;
32319;SDS011;19080;51.750;5.888;2024-01-11T06:31:56;27.85;;;15.60;;
32319;SDS011;19080;51.750;5.888;2024-01-11T06:34:23;25.25;;;13.75;;
32319;SDS011;19080;51.750;5.888;2024-01-11T06:36:49;22.42;;;12.00;;
32319;SDS011;19080;51.750;5.888;2024-01-11T06:39:16;28.75;;;15.60;;
32319;SDS011;19080;51.750;5.888;2024-01-11T06:41:43;26.75;;;13.63;;
32319;SDS011;19080;51.750;5.888;2024-01-11T06:44:09;30.33;;;15.07;;
32319;SDS011;19080;51.750;5.888;2024-01-11T06:46:36;29.65;;;14.07;;
32319;SDS011;19080;51.750;5.888;2024-01-11T06:49:05;27.02;;;15.60;;
32319;SDS011;19080;51.750;5.888;2024-01-11T06:51:32;32.70;;;18.00;;
32319;SDS011;19080;51.750;5.888;2024-01-11T06:53:59;31.17;;;16.45;;
32319;SDS011;19080;51.750;5.888;2024-01-11T06:56:27;34.10;;;16.23;;
32319;SDS011;19080;51.750;5.888;2024-01-11T06:58:54;43.08;;;22.10;;
32319;SDS011;19080;51.750;5.888;2024-01-11T07:01:21;38.80;;;20.27;;
32319;SDS011;19080;51.750;5.888;2024-01-11T07:03:49;35.13;;;20.30;;
32319;SDS011;19080;51.750;5.888;2024-01-11T07:06:16;34.30;;;16.77;;
32319;SDS011;19080;51.750;5.888;2024-01-11T07:08:43;26.85;;;14.57;;
32319;SDS011;19080;51.750;5.888;2024-01-11T07:11:10;26.30;;;14.70;;
32319;SDS011;19080;51.750;5.888;2024-01-11T07:13:37;30.30;;;15.48;;
32319;SDS011;19080;51.750;5.888;2024-01-11T07:16:04;36.65;;;17.10;;
32319;SDS011;19080;51.750;5.888;2024-01-11T07:18:32;30.38;;;16.90;;
32319;SDS011;19080;51.750;5.888;2024-01-11T07:20:59;34.03;;;17.08;;
32319;SDS011;19080;51.750;5.888;2024-01-11T07:23:27;33.83;;;17.25;;
32319;SDS011;19080;51.750;5.888;2024-01-11T07:25:55;34.67;;;17.50;;
32319;SDS011;19080;51.750;5.888;2024-01-11T07:28:22;30.75;;;15.20;;
32319;SDS011;19080;51.750;5.888;2024-01-11T07:30:52;37.63;;;15.98;;
32319;SDS011;19080;51.750;5.888;2024-01-11T07:33:20;30.52;;;15.25;;
32319;SDS011;19080;51.750;5.888;2024-01-11T07:35:47;34.97;;;19.08;;
32319;SDS011;19080;51.750;5.888;2024-01-11T07:38:14;38.22;;;15.60;;
32319;SDS011;19080;51.750;5.888;2024-01-11T07:40:41;34.30;;;16.45;;
32319;SDS011;19080;51.750;5.888;2024-01-11T07:43:09;30.63;;;15.63;;
32319;SDS011;19080;51.750;5.888;2024-01-11T07:45:36;28.08;;;14.98;;
32319;SDS011;19080;51.750;5.888;2024-01-11T07:48:03;38.53;;;19.02;;
32319;SDS011;19080;51.750;5.888;2024-01-11T07:50:30;49.67;;;21.95;;
32319;SDS011;19080;51.750;5.888;2024-01-11T07:52:57;40.38;;;19.45;;
32319;SDS011;19080;51.750;5.888;2024-01-11T07:55:24;38.13;;;18.58;;
32319;SDS011;19080;51.750;5.888;2024-01-11T07:57:50;33.17;;;17.98;;
32319;SDS011;19080;51.750;5.888;2024-01-11T08:00:17;50.45;;;27.60;;
32319;SDS011;19080;51.750;5.888;2024-01-11T08:02:44;69.78;;;37.67;;
32319;SDS011;19080;51.750;5.888;2024-01-11T08:05:11;36.38;;;20.48;;
32319;SDS011;19080;51.750;5.888;2024-01-11T08:07:39;43.95;;;20.55;;
32319;SDS011;19080;51.750;5.888;2024-01-11T08:10:06;38.05;;;19.60;;
32319;SDS011;19080;51.750;5.888;2024-01-11T08:12:33;33.45;;;17.10;;
32319;SDS011;19080;51.750;5.888;2024-01-11T08:15:01;34.75;;;17.95;;
32319;SDS011;19080;51.750;5.888;2024-01-11T08:17:27;40.70;;;20.75;;
32319;SDS011;19080;51.750;5.888;2024-01-11T08:19:54;41.95;;;21.67;;
32319;SDS011;19080;51.750;5.888;2024-01-11T08:22:23;36.40;;;21.13;;
32319;SDS011;19080;51.750;5.888;2024-01-11T08:24:53;41.08;;;20.40;;
32319;SDS011;19080;51.750;5.888;2024-01-11T08:27:20;46.92;;;22.58;;
32319;SDS011;19080;51.750;5.888;2024-01-11T08:29:46;42.63;;;22.00;;
32319;SDS011;19080;51.750;5.888;2024-01-11T08:32:13;41.63;;;21.23;;
32319;SDS011;19080;51.750;5.888;2024-01-11T08:34:56;39.28;;;19.40;;
32319;SDS011;19080;51.750;5.888;2024-01-11T08:37:24;36.53;;;18.65;;
32319;SDS011;19080;51.750;5.888;2024-01-11T08:39:50;37.67;;;20.45;;
32319;SDS011;19080;51.750;5.888;2024-01-11T08:42:17;36.35;;;19.27;;
32319;SDS011;19080;51.750;5.888;2024-01-11T08:44:44;39.25;;;19.70;;
32319;SDS011;19080;51.750;5.888;2024-01-11T08:47:11;45.15;;;23.83;;
32319;SDS011;19080;51.750;5.888;2024-01-11T08:49:39;37.22;;;19.80;;
32319;SDS011;19080;51.750;5.888;2024-01-11T08:52:06;40.80;;;21.50;;
32319;SDS011;19080;51.750;5.888;2024-01-11T08:54:34;40.80;;;20.48;;
32319;SDS011;19080;51.750;5.888;2024-01-11T08:57:01;41.83;;;22.10;;
32319;SDS011;19080;51.750;5.888;2024-01-11T08:59:28;47.40;;;26.65;;
32319;SDS011;19080;51.750;5.888;2024-01-11T09:01:54;40.63;;;23.00;;
32319;SDS011;19080;51.750;5.888;2024-01-11T09:04:36;38.17;;;19.38;;
32319;SDS011;19080;51.750;5.888;2024-01-11T09:07:03;32.08;;;18.27;;
32319;SDS011;19080;51.750;5.888;2024-01-11T09:09:30;31.02;;;18.92;;
32319;SDS011;19080;51.750;5.888;2024-01-11T09:11:59;31.13;;;18.00;;
32319;SDS011;19080;51.750;5.888;2024-01-11T09:14:26;36.45;;;18.02;;
32319;SDS011;19080;51.750;5.888;2024-01-11T09:16:53;34.70;;;18.25;;
32319;SDS011;19080;51.750;5.888;2024-01-11T09:19:21;33.65;;;19.15;;
32319;SDS011;19080;51.750;5.888;2024-01-11T09:21:48;32.40;;;18.33;;
32319;SDS011;19080;51.750;5.888;2024-01-11T09:24:15;33.55;;;17.85;;
32319;SDS011;19080;51.750;5.888;2024-01-11T09:26:42;31.45;;;18.58;;
32319;SDS011;19080;51.750;5.888;2024-01-11T09:29:09;31.20;;;17.95;;
32319;SDS011;19080;51.750;5.888;2024-01-11T09:31:36;34.10;;;18.45;;
32319;SDS011;19080;51.750;5.888;2024-01-11T09:34:02;34.03;;;19.05;;
32319;SDS011;19080;51.750;5.888;2024-01-11T09:36:29;30.38;;;18.30;;
32319;SDS011;19080;51.750;5.888;2024-01-11T09:38:56;31.08;;;18.15;;
32319;SDS011;19080;51.750;5.888;2024-01-11T09:41:23;32.60;;;19.60;;
32319;SDS011;19080;51.750;5.888;2024-01-11T09:43:50;30.35;;;18.60;;
32319;SDS011;19080;51.750;5.888;2024-01-11T09:46:20;30.20;;;18.75;;
32319;SDS011;19080;51.750;5.888;2024-01-11T09:48:48;32.63;;;19.42;;
32319;SDS011;19080;51.750;5.888;2024-01-11T09:51:16;33.22;;;19.65;;
32319;SDS011;19080;51.750;5.888;2024-01-11T09:53:43;34.25;;;20.17;;
32319;SDS011;19080;51.750;5.888;2024-01-11T09:56:10;33.35;;;20.50;;
32319;SDS011;19080;51.750;5.888;2024-01-11T09:58:37;36.42;;;21.75;;
32319;SDS011;19080;51.750;5.888;2024-01-11T10:01:12;33.67;;;20.08;;
32319;SDS011;19080;51.750;5.888;2024-01-11T10:03:40;35.78;;;21.30;;
32319;SDS011;19080;51.750;5.888;2024-01-11T10:06:10;36.15;;;20.35;;
32319;SDS011;19080;51.750;5.888;2024-01-11T10:08:37;33.75;;;21.13;;
32319;SDS011;19080;51.750;5.888;2024-01-11T10:11:04;37.60;;;20.33;;
32319;SDS011;19080;51.750;5.888;2024-01-11T10:13:31;33.47;;;20.67;;
32319;SDS011;19080;51.750;5.888;2024-01-11T10:16:09;32.95;;;20.85;;
32319;SDS011;19080;51.750;5.888;2024-01-11T10:18:37;33.90;;;21.17;;
32319;SDS011;19080;51.750;5.888;2024-01-11T10:21:04;31.05;;;20.45;;
32319;SDS011;19080;51.750;5.888;2024-01-11T10:23:38;32.10;;;20.08;;
32319;SDS011;19080;51.750;5.888;2024-01-11T10:26:08;35.83;;;22.20;;
32319;SDS011;19080;51.750;5.888;2024-01-11T10:28:35;32.40;;;20.38;;
32319;SDS011;19080;51.750;5.888;2024-01-11T10:31:05;28.33;;;18.88;;
32319;SDS011;19080;51.750;5.888;2024-01-11T10:33:33;32.30;;;20.35;;
32319;SDS011;19080;51.750;5.888;2024-01-11T10:36:01;33.85;;;21.55;;
32319;SDS011;19080;51.750;5.888;2024-01-11T10:38:28;31.52;;;21.08;;
32319;SDS011;19080;51.750;5.888;2024-01-11T10:40:58;33.70;;;21.10;;
32319;SDS011;19080;51.750;5.888;2024-01-11T10:43:26;31.85;;;20.80;;
32319;SDS011;19080;51.750;5.888;2024-01-11T10:45:56;33.55;;;20.65;;
32319;SDS011;19080;51.750;5.888;2024-01-11T10:48:27;31.10;;;20.65;;
32319;SDS011;19080;51.750;5.888;2024-01-11T10:51:01;34.28;;;20.52;;
32319;SDS011;19080;51.750;5.888;2024-01-11T10:56:16;30.23;;;19.85;;
32319;SDS011;19080;51.750;5.888;2024-01-11T10:58:44;31.52;;;20.08;;
32319;SDS011;19080;51.750;5.888;2024-01-11T11:01:11;33.50;;;20.50;;
32319;SDS011;19080;51.750;5.888;2024-01-11T11:03:39;32.83;;;21.17;;
32319;SDS011;19080;51.750;5.888;2024-01-11T11:06:09;33.33;;;21.17;;
32319;SDS011;19080;51.750;5.888;2024-01-11T11:08:39;30.20;;;20.60;;
32319;SDS011;19080;51.750;5.888;2024-01-11T11:11:07;27.80;;;19.67;;
32319;SDS011;19080;51.750;5.888;2024-01-11T11:13:35;27.13;;;19.08;;
32319;SDS011;19080;51.750;5.888;2024-01-11T11:16:02;30.50;;;18.65;;
32319;SDS011;19080;51.750;5.888;2024-01-11T11:18:32;31.30;;;20.10;;
32319;SDS011;19080;51.750;5.888;2024-01-11T11:21:06;28.02;;;19.38;;
32319;SDS011;19080;51.750;5.888;2024-01-11T11:23:39;30.70;;;20.17;;
32319;SDS011;19080;51.750;5.888;2024-01-11T11:26:07;28.27;;;19.83;;
32319;SDS011;19080;51.750;5.888;2024-01-11T11:28:43;25.65;;;19.02;;
32319;SDS011;19080;51.750;5.888;2024-01-11T11:31:10;30.50;;;18.63;;
32319;SDS011;19080;51.750;5.888;2024-01-11T11:33:38;29.88;;;18.80;;
32319;SDS011;19080;51.750;5.888;2024-01-11T11:36:05;28.13;;;19.27;;
32319;SDS011;19080;51.750;5.888;2024-01-11T11:38:34;25.23;;;18.30;;
32319;SDS011;19080;51.750;5.888;2024-01-11T11:41:02;30.73;;;20.40;;
32319;SDS011;19080;51.750;5.888;2024-01-11T11:43:30;29.63;;;20.38;;
32319;SDS011;19080;51.750;5.888;2024-01-11T11:46:03;27.17;;;20.33;;
32319;SDS011;19080;51.750;5.888;2024-01-11T11:53:46;26.17;;;18.13;;
32319;SDS011;19080;51.750;5.888;2024-01-11T11:56:16;25.20;;;18.88;;
32319;SDS011;19080;51.750;5.888;2024-01-11T11:58:45;25.77;;;18.63;;
32319;SDS011;19080;51.750;5.888;2024-01-11T12:01:13;25.25;;;18.38;;
32319;SDS011;19080;51.750;5.888;2024-01-11T12:03:41;19.80;;;14.77;;
32319;SDS011;19080;51.750;5.888;2024-01-11T12:06:09;21.38;;;16.27;;
32319;SDS011;19080;51.750;5.888;2024-01-11T12:08:41;22.25;;;15.18;;
32319;SDS011;19080;51.750;5.888;2024-01-11T12:11:09;18.95;;;14.63;;
32319;SDS011;19080;51.750;5.888;2024-01-11T12:13:40;15.95;;;11.18;;
32319;SDS011;19080;51.750;5.888;2024-01-11T12:16:07;13.73;;;9.20;;
32319;SDS011;19080;51.750;5.888;2024-01-11T12:18:35;16.00;;;9.82;;
32319;SDS011;19080;51.750;5.888;2024-01-11T12:21:02;14.75;;;8.70;;
32319;SDS011;19080;51.750;5.888;2024-01-11T12:23:29;16.27;;;8.93;;
32319;SDS011;19080;51.750;5.888;2024-01-11T12:26:02;16.23;;;9.55;;
32319;SDS011;19080;51.750;5.888;2024-01-11T12:28:32;18.10;;;10.27;;
32319;SDS011;19080;51.750;5.888;2024-01-11T12:30:59;17.60;;;9.77;;
32319;SDS011;19080;51.750;5.888;2024-01-11T12:33:26;19.17;;;10.02;;
32319;SDS011;19080;51.750;5.888;2024-01-11T12:35:54;19.65;;;10.27;;
32319;SDS011;19080;51.750;5.888;2024-01-11T12:38:22;18.75;;;9.13;;
32319;SDS011;19080;51.750;5.888;2024-01-11T12:40:50;20.90;;;10.85;;
32319;SDS011;19080;51.750;5.888;2024-01-11T12:43:17;17.88;;;9.77;;
32319;SDS011;19080;51.750;5.888;2024-01-11T12:45:44;18.85;;;8.90;;
32319;SDS011;19080;51.750;5.888;2024-01-11T12:48:11;19.17;;;10.05;;
32319;SDS011;19080;51.750;5.888;2024-01-11T12:50:41;21.17;;;10.05;;
32319;SDS011;19080;51.750;5.888;2024-01-11T12:53:11;19.10;;;9.88;;
32319;SDS011;19080;51.750;5.888;2024-01-11T12:55:46;21.30;;;10.07;;
32319;SDS011;19080;51.750;5.888;2024-01-11T12:58:23;18.52;;;10.18;;
32319;SDS011;19080;51.750;5.888;2024-01-11T13:00:53;19.58;;;10.50;;
32319;SDS011;19080;51.750;5.888;2024-01-11T13:03:20;21.70;;;10.90;;
32319;SDS011;19080;51.750;5.888;2024-01-11T13:05:48;25.25;;;10.88;;
32319;SDS011;19080;51.750;5.888;2024-01-11T13:08:16;21.50;;;10.73;;
32319;SDS011;19080;51.750;5.888;2024-01-11T13:10:47;20.13;;;10.98;;
32319;SDS011;19080;51.750;5.888;2024-01-11T13:13:15;21.98;;;12.23;;
32319;SDS011;19080;51.750;5.888;2024-01-11T13:15:42;20.27;;;10.40;;
32319;SDS011;19080;51.750;5.888;2024-01-11T13:18:09;23.52;;;11.57;;
32319;SDS011;19080;51.750;5.888;2024-01-11T13:20:36;21.30;;;10.77;;
32319;SDS011;19080;51.750;5.888;2024-01-11T13:23:16;25.75;;;11.48;;
32319;SDS011;19080;51.750;5.888;2024-01-11T13:28:14;21.35;;;10.52;;
32319;SDS011;19080;51.750;5.888;2024-01-11T13:30:42;24.20;;;11.35;;
32319;SDS011;19080;51.750;5.888;2024-01-11T13:33:09;22.15;;;11.57;;
32319;SDS011;19080;51.750;5.888;2024-01-11T13:35:41;24.27;;;11.77;;
32319;SDS011;19080;51.750;5.888;2024-01-11T13:38:12;22.52;;;11.65;;
32319;SDS011;19080;51.750;5.888;2024-01-11T13:40:39;18.65;;;10.52;;
32319;SDS011;19080;51.750;5.888;2024-01-11T13:43:08;21.90;;;11.23;;
32319;SDS011;19080;51.750;5.888;2024-01-11T13:45:35;23.13;;;11.40;;
32319;SDS011;19080;51.750;5.888;2024-01-11T13:48:03;23.38;;;12.02;;
32319;SDS011;19080;51.750;5.888;2024-01-11T13:50:31;24.70;;;12.25;;
32319;SDS011;19080;51.750;5.888;2024-01-11T13:52:59;21.10;;;10.98;;
32319;SDS011;19080;51.750;5.888;2024-01-11T13:55:27;20.17;;;10.75;;
32319;SDS011;19080;51.750;5.888;2024-01-11T13:57:55;23.02;;;10.77;;
32319;SDS011;19080;51.750;5.888;2024-01-11T14:00:22;22.50;;;11.15;;
32319;SDS011;19080;51.750;5.888;2024-01-11T14:02:50;24.65;;;12.68;;
32319;SDS011;19080;51.750;5.888;2024-01-11T14:05:17;23.20;;;12.40;;
32319;SDS011;19080;51.750;5.888;2024-01-11T14:07:45;22.70;;;12.32;;
32319;SDS011;19080;51.750;5.888;2024-01-11T14:10:13;24.45;;;12.57;;
32319;SDS011;19080;51.750;5.888;2024-01-11T14:12:41;24.17;;;11.73;;
32319;SDS011;19080;51.750;5.888;2024-01-11T14:15:09;26.23;;;12.52;;
32319;SDS011;19080;51.750;5.888;2024-01-11T14:17:38;22.15;;;12.52;;
32319;SDS011;19080;51.750;5.888;2024-01-11T14:20:06;24.65;;;13.05;;
32319;SDS011;19080;51.750;5.888;2024-01-11T14:22:40;26.88;;;14.05;;
32319;SDS011;19080;51.750;5.888;2024-01-11T14:25:08;22.17;;;13.13;;
32319;SDS011;19080;51.750;5.888;2024-01-11T14:27:37;25.90;;;12.02;;
32319;SDS011;19080;51.750;5.888;2024-01-11T14:30:06;23.80;;;12.82;;
32319;SDS011;19080;51.750;5.888;2024-01-11T14:32:33;21.35;;;12.02;;
32319;SDS011;19080;51.750;5.888;2024-01-11T14:35:04;25.98;;;12.95;;